Time;durP1;ratioP1;P1;durP2;ratioP2;P2;SDS_P1;SDS_P2;PMS_P1;PMS_P2;Temp;Humidity;BMP_temperature;BMP_pressure;BME280_temperature;BME280_humidity;BME280_pressure;Samples;Min_cycle;Max_cycle;Signal;HPM_P1;HPM_P2
2022/11/02 00:00:13;;;;;;;14.63;1.48;;;12.20;65.00;;;;;;4219881;28;20024;-88
2022/11/02 00:02:34;;;;;;;11.38;1.77;;;12.10;65.00;;;;;;4223701;27;20101;-88
2022/11/02 00:04:55;;;;;;;8.63;1.65;;;12.20;65.10;;;;;;4225862;27;20027;-87
2022/11/02 00:06:55;;;;;;;10.15;1.70;;;12.20;65.10;;;;;;4210504;28;20546;-88
2022/11/02 00:08:56;;;;;;;11.90;1.85;;;12.10;65.00;;;;;;4226889;27;20026;-88
2022/11/02 00:11:17;;;;;;;7.38;1.42;;;12.10;65.00;;;;;;4218546;27;20101;-88
2022/11/02 00:13:37;;;;;;;6.25;1.33;;;12.20;65.10;;;;;;4225166;27;20523;-87
2022/11/02 00:16:04;;;;;;;18.08;1.88;;;12.10;65.00;;;;;;4217649;27;20039;-88
2022/11/02 00:18:25;;;;;;;4.88;1.55;;;12.20;65.10;;;;;;4225127;27;20418;-87
2022/11/02 00:20:45;;;;;;;13.20;1.73;;;12.20;65.00;;;;;;4228530;28;20462;-88
2022/11/02 00:23:09;;;;;;;9.95;1.35;;;12.10;65.00;;;;;;4219245;28;20028;-88
2022/11/02 00:25:30;;;;;;;13.20;1.95;;;12.10;64.90;;;;;;4227838;27;20040;-88
2022/11/02 00:27:34;;;;;;;12.77;2.03;;;12.20;65.80;;;;;;4228421;27;20019;-88
2022/11/02 00:29:55;;;;;;;8.80;1.90;;;12.20;65.00;;;;;;4225905;28;20035;-89
2022/11/02 00:32:09;;;;;;;7.18;1.27;;;12.10;64.90;;;;;;4231281;28;20023;-89
2022/11/02 00:34:30;;;;;;;9.98;1.55;;;12.10;64.90;;;;;;4222123;27;20100;-88
2022/11/02 00:36:51;;;;;;;8.48;1.48;;;12.10;64.90;;;;;;4224486;28;20031;-89
2022/11/02 00:39:04;;;;;;;8.65;1.42;;;12.10;64.90;;;;;;4224658;27;20815;-88
2022/11/02 00:41:24;;;;;;;18.65;2.05;;;12.10;64.80;;;;;;4237665;28;20037;-88
2022/11/02 00:43:45;;;;;;;8.77;1.35;;;12.20;64.90;;;;;;4219274;28;21219;-88
2022/11/02 00:46:02;;;;;;;13.30;2.20;;;12.00;64.80;;;;;;4224909;28;20028;-88
2022/11/02 00:48:23;;;;;;;11.50;1.85;;;12.00;64.80;;;;;;4226209;28;20377;-88
2022/11/02 00:50:43;;;;;;;13.88;1.90;;;12.10;64.80;;;;;;4224496;28;20410;-88
2022/11/02 00:53:04;;;;;;;7.68;1.50;;;12.00;64.70;;;;;;4224555;28;20407;-88
2022/11/02 00:55:24;;;;;;;7.45;1.77;;;12.00;64.80;;;;;;4219114;28;20394;-87
2022/11/02 00:57:45;;;;;;;8.95;1.55;;;12.00;64.80;;;;;;4223045;28;20491;-88
2022/11/02 01:00:08;;;;;;;11.20;1.95;;;12.00;64.80;;;;;;4226613;28;20028;-89
2022/11/02 01:02:29;;;;;;;15.50;1.92;;;12.00;64.80;;;;;;4227613;28;20560;-88
2022/11/02 01:04:49;;;;;;;8.50;1.30;;;12.00;64.90;;;;;;4242507;28;20043;-88
2022/11/02 01:07:10;;;;;;;15.38;1.92;;;12.00;64.90;;;;;;4225097;28;20494;-88
2022/11/02 01:09:32;;;;;;;11.35;1.80;;;12.10;64.90;;;;;;4224997;28;20580;-87
2022/11/02 01:11:53;;;;;;;6.63;1.55;;;12.00;64.90;;;;;;4227813;28;20051;-88
2022/11/02 01:14:14;;;;;;;10.73;1.58;;;12.10;64.90;;;;;;4229889;27;20578;-88
2022/11/02 01:16:34;;;;;;;16.80;1.73;;;12.00;64.90;;;;;;4228404;27;20079;-89
2022/11/02 01:18:56;;;;;;;8.20;1.20;;;12.10;65.00;;;;;;4220212;28;20609;-88
2022/11/02 01:21:16;;;;;;;9.82;1.85;;;12.00;64.90;;;;;;4224013;28;20050;-87
2022/11/02 01:23:37;;;;;;;13.52;1.50;;;11.90;64.90;;;;;;4221785;27;20502;-88
2022/11/02 01:26:01;;;;;;;8.25;1.45;;;12.00;64.90;;;;;;4223231;28;20036;-87
2022/11/02 01:28:21;;;;;;;13.27;1.50;;;11.90;64.90;;;;;;4220952;27;20054;-88
2022/11/02 01:30:42;;;;;;;7.95;1.40;;;11.90;65.00;;;;;;4224908;27;20442;-87
2022/11/02 01:33:05;;;;;;;9.82;1.83;;;12.00;65.00;;;;;;4226079;27;20060;-88
2022/11/02 01:35:25;;;;;;;11.40;2.15;;;11.90;65.00;;;;;;4243547;27;20036;-88
2022/11/02 01:37:46;;;;;;;7.88;1.83;;;11.90;64.90;;;;;;4246585;27;20023;-87
2022/11/02 01:40:07;;;;;;;13.07;1.60;;;12.00;65.00;;;;;;4223504;27;20041;-88
2022/11/02 01:42:28;;;;;;;10.43;1.75;;;11.90;65.00;;;;;;4226110;27;20047;-87
2022/11/02 01:44:48;;;;;;;13.50;2.00;;;12.00;65.20;;;;;;4225845;27;20310;-88
2022/11/02 01:47:12;;;;;;;8.88;1.40;;;11.90;65.20;;;;;;4227858;27;20032;-87
2022/11/02 01:49:36;;;;;;;7.72;1.73;;;11.90;65.30;;;;;;4225532;27;20039;-87
2022/11/02 01:52:04;;;;;;;11.68;2.13;;;11.90;65.30;;;;;;4228125;27;20084;-88
2022/11/02 01:54:29;;;;;;;10.27;1.75;;;11.90;65.50;;;;;;4229511;27;20028;-87
2022/11/02 01:56:56;;;;;;;13.52;1.70;;;12.00;65.50;;;;;;4217764;27;20115;-87
2022/11/02 01:59:22;;;;;;;9.57;1.77;;;12.00;65.60;;;;;;4221362;27;20115;-87
2022/11/02 02:01:43;;;;;;;13.35;2.00;;;11.80;65.50;;;;;;4226712;27;20161;-87
2022/11/02 02:04:04;;;;;;;14.02;1.70;;;11.90;65.70;;;;;;4223264;27;20168;-87
2022/11/02 02:06:25;;;;;;;8.90;1.85;;;11.90;65.80;;;;;;4221649;28;20024;-88
2022/11/02 02:08:48;;;;;;;9.55;1.92;;;11.80;65.80;;;;;;4227705;27;20137;-86
2022/11/02 02:11:27;;;;;;;6.93;1.48;;;11.80;65.80;;;;;;4231987;27;20672;-87
2022/11/02 02:13:48;;;;;;;12.70;1.80;;;11.80;66.60;;;;;;4220176;27;22611;-87
2022/11/02 02:16:19;;;;;;;11.95;1.95;;;11.80;65.80;;;;;;4220144;27;20046;-86
2022/11/02 02:18:54;;;;;;;16.58;1.85;;;11.80;65.90;;;;;;4229625;27;20035;-87
2022/11/02 02:22:00;;;;;;;8.43;1.70;;;11.90;66.00;;;;;;4221358;27;20077;-87
2022/11/02 02:24:26;;;;;;;10.88;1.58;;;11.80;65.90;;;;;;4154321;28;20029;-87
2022/11/02 02:26:59;;;;;;;12.77;2.08;;;11.80;65.90;;;;;;4169989;28;20092;-88
2022/11/02 02:29:29;;;;;;;8.40;1.65;;;11.80;65.90;;;;;;4178146;28;20071;-86
2022/11/02 02:31:57;;;;;;;12.38;2.20;;;11.80;65.90;;;;;;4153024;28;20177;-86
2022/11/02 02:34:48;;;;;;;11.82;1.73;;;11.80;65.90;;;;;;4169967;28;20556;-87
2022/11/02 02:37:18;;;;;;;11.60;1.73;;;11.80;65.90;;;;;;4120538;28;20138;-87
2022/11/02 02:40:18;;;;;;;10.98;1.40;;;11.80;65.90;;;;;;4102147;28;20153;-88
2022/11/02 02:42:51;;;;;;;12.82;1.83;;;11.80;65.90;;;;;;4105130;28;20053;-86
2022/11/02 02:45:34;;;;;;;9.30;1.98;;;11.80;65.80;;;;;;4092212;28;20035;-87
2022/11/02 02:48:13;;;;;;;9.90;1.48;;;11.80;65.90;;;;;;4104211;28;20057;-88
2022/11/02 02:50:40;;;;;;;15.68;1.55;;;11.80;65.90;;;;;;4088964;28;20086;-87
2022/11/02 02:53:05;;;;;;;10.50;1.52;;;11.80;65.90;;;;;;4101995;28;20037;-87
2022/11/02 02:55:34;;;;;;;15.13;2.97;;;11.90;65.90;;;;;;4104514;28;20107;-87
2022/11/02 02:57:57;;;;;;;10.90;1.48;;;11.80;65.90;;;;;;4105595;28;20070;-88
2022/11/02 03:00:17;;;;;;;10.73;1.73;;;11.90;65.90;;;;;;4122888;28;20036;-88
2022/11/02 03:02:38;;;;;;;7.35;1.25;;;11.80;65.80;;;;;;4170642;28;20098;-88
2022/11/02 03:04:57;;;;;;;10.57;1.35;;;11.90;65.80;;;;;;4156356;28;20117;-87
2022/11/02 03:07:23;;;;;;;6.97;1.60;;;11.80;65.80;;;;;;4167697;28;20067;-87
2022/11/02 03:10:15;;;;;;;8.07;1.63;;;11.90;65.80;;;;;;4170646;28;20100;-88
2022/11/02 03:12:57;;;;;;;16.92;2.00;;;11.80;65.80;;;;;;4124281;28;20474;-87
2022/11/02 03:15:25;;;;;;;12.70;1.80;;;11.80;65.80;;;;;;4160565;28;20084;-87
2022/11/02 03:17:54;;;;;;;8.30;1.40;;;11.90;65.80;;;;;;4174982;28;20040;-87
2022/11/02 03:20:31;;;;;;;9.93;1.50;;;11.80;65.80;;;;;;4174516;28;20123;-88
2022/11/02 03:23:17;;;;;;;10.73;1.65;;;11.80;65.80;;;;;;4177325;28;20128;-87
2022/11/02 03:25:49;;;;;;;15.60;1.70;;;11.90;65.80;;;;;;4173364;28;20043;-87
2022/11/02 03:28:19;;;;;;;11.95;1.83;;;11.90;65.80;;;;;;4172128;28;20040;-87
2022/11/02 03:30:46;;;;;;;5.57;1.05;;;11.90;65.80;;;;;;4179305;28;20074;-88
2022/11/02 03:33:16;;;;;;;10.73;1.88;;;11.80;65.80;;;;;;4178735;28;20440;-88
2022/11/02 03:35:46;;;;;;;11.35;2.17;;;11.80;65.80;;;;;;4180520;28;20051;-88
2022/11/02 03:38:19;;;;;;;11.98;1.95;;;11.80;66.50;;;;;;4176177;28;20079;-88
2022/11/02 03:40:44;;;;;;;8.95;1.40;;;11.80;65.80;;;;;;4163389;28;20120;-88
2022/11/02 03:43:04;;;;;;;14.30;1.70;;;11.80;65.80;;;;;;4174575;28;20544;-88
2022/11/02 03:45:28;;;;;;;9.63;1.52;;;11.80;65.80;;;;;;4162099;28;20092;-87
2022/11/02 03:47:52;;;;;;;12.15;1.60;;;11.80;66.00;;;;;;4171599;28;20094;-87
2022/11/02 03:50:14;;;;;;;8.30;1.80;;;11.80;65.80;;;;;;4217144;28;20149;-87
2022/11/02 03:52:38;;;;;;;8.57;1.45;;;11.80;65.80;;;;;;4223401;28;20155;-88
2022/11/02 03:55:12;;;;;;;9.98;1.58;;;11.90;65.90;;;;;;4221200;27;20027;-87
2022/11/02 03:57:35;;;;;;;11.60;1.63;;;11.80;65.90;;;;;;4222324;27;20430;-88
2022/11/02 04:00:13;;;;;;;8.02;1.42;;;11.80;66.00;;;;;;4222837;27;20083;-88
2022/11/02 04:02:36;;;;;;;12.38;1.67;;;11.80;66.00;;;;;;4219382;28;20039;-88
2022/11/02 04:04:56;;;;;;;13.40;1.98;;;11.80;66.00;;;;;;4221167;28;20081;-87
2022/11/02 04:07:20;;;;;;;10.77;1.38;;;11.80;66.00;;;;;;4220967;27;20070;-87
2022/11/02 04:09:39;;;;;;;12.00;1.67;;;11.80;66.20;;;;;;4223968;27;20092;-87
2022/11/02 04:14:37;;;;;;;10.52;1.88;;;11.70;66.40;;;;;;4228581;27;20395;-87
2022/11/02 04:19:36;;;;;;;11.75;1.52;;;11.80;66.60;;;;;;4228059;27;20040;-88
2022/11/02 04:27:15;;;;;;;13.30;1.60;;;11.80;66.80;;;;;;4221545;28;20063;-88
2022/11/02 04:29:36;;;;;;;9.20;1.50;;;11.80;66.90;;;;;;4219582;28;20081;-87
2022/11/02 04:31:57;;;;;;;16.08;1.75;;;11.80;67.00;;;;;;4219943;28;20043;-87
2022/11/02 04:34:17;;;;;;;12.35;1.98;;;11.80;67.10;;;;;;4225420;28;20516;-88
2022/11/02 04:36:38;;;;;;;13.48;1.80;;;11.60;67.10;;;;;;4227000;28;20035;-88
2022/11/02 04:38:59;;;;;;;11.10;1.77;;;11.60;67.20;;;;;;4224184;28;20037;-87
2022/11/02 04:44:01;;;;;;;9.50;1.50;;;11.60;67.50;;;;;;4228417;28;20036;-88
2022/11/02 04:46:23;;;;;;;10.45;1.92;;;11.60;67.50;;;;;;4229121;27;20122;-87
2022/11/02 04:48:44;;;;;;;14.90;2.10;;;11.50;67.50;;;;;;4220731;27;20031;-88
2022/11/02 04:51:05;;;;;;;8.90;1.40;;;11.70;67.70;;;;;;4229345;27;20522;-87
2022/11/02 04:53:24;;;;;;;8.55;1.85;;;11.50;67.60;;;;;;4226819;27;20510;-88
2022/11/02 04:55:45;;;;;;;12.30;1.70;;;11.50;67.70;;;;;;4225665;27;20124;-87
2022/11/02 04:58:05;;;;;;;9.32;1.70;;;11.60;67.90;;;;;;4219220;27;20061;-87
2022/11/02 05:00:24;;;;;;;11.82;1.45;;;11.50;67.90;;;;;;4223796;27;20057;-87
2022/11/02 05:02:48;;;;;;;7.28;1.60;;;11.50;68.00;;;;;;4225336;27;20066;-86
2022/11/02 05:05:11;;;;;;;10.38;1.60;;;11.50;68.00;;;;;;4226450;27;20517;-88
2022/11/02 05:07:30;;;;;;;13.73;1.75;;;11.50;68.20;;;;;;4223057;27;20074;-86
2022/11/02 05:09:50;;;;;;;11.57;2.00;;;11.40;68.20;;;;;;4224065;27;20039;-86
2022/11/02 05:12:09;;;;;;;8.38;1.33;;;11.50;68.30;;;;;;4222001;27;20137;-87
2022/11/02 05:14:28;;;;;;;11.75;1.38;;;11.40;68.40;;;;;;4222406;27;20058;-86
2022/11/02 05:16:47;;;;;;;8.63;1.50;;;11.40;68.80;;;;;;4224657;28;20711;-86
2022/11/02 05:19:06;;;;;;;8.70;1.63;;;11.40;68.50;;;;;;4226223;28;20073;-86
2022/11/02 05:21:25;;;;;;;13.30;1.70;;;11.40;68.40;;;;;;4223886;27;20572;-87
2022/11/02 05:23:45;;;;;;;8.63;1.52;;;11.40;68.40;;;;;;4221331;27;21542;-86
2022/11/02 05:26:09;;;;;;;8.65;1.48;;;11.40;68.50;;;;;;4227153;27;20051;-86
2022/11/02 05:28:28;;;;;;;;;;;11.40;68.40;;;;;;4220920;27;20039;-86
2022/11/02 05:30:48;;;;;;;7.75;1.30;;;11.40;68.50;;;;;;4223396;27;20505;-86
2022/11/02 05:33:07;;;;;;;12.95;1.55;;;11.40;68.20;;;;;;4235686;27;20046;-86
2022/11/02 05:35:26;;;;;;;6.55;1.50;;;11.50;68.30;;;;;;4221892;27;20094;-86
2022/11/02 05:37:46;;;;;;;10.95;1.70;;;11.30;68.30;;;;;;4221913;27;20574;-86
2022/11/02 05:40:07;;;;;;;9.75;1.08;;;11.30;68.50;;;;;;4225697;27;20085;-86
2022/11/02 05:42:26;;;;;;;8.73;1.33;;;11.30;68.50;;;;;;4221530;27;20562;-86
2022/11/02 05:44:45;;;;;;;8.65;1.23;;;11.20;68.50;;;;;;4224460;27;20066;-85
2022/11/02 05:47:05;;;;;;;4.35;0.82;;;11.20;68.50;;;;;;4234325;27;20051;-86
2022/11/02 05:49:24;;;;;;;9.80;1.30;;;11.30;68.70;;;;;;4229270;27;20418;-86
2022/11/02 05:51:43;;;;;;;12.10;1.38;;;11.20;68.80;;;;;;4226538;27;20119;-85
2022/11/02 05:54:02;;;;;;;3.63;0.70;;;11.20;69.00;;;;;;4230606;27;20038;-86
2022/11/02 05:56:22;;;;;;;6.10;1.20;;;11.20;69.00;;;;;;4231864;27;20103;-85
2022/11/02 05:58:41;;;;;;;8.73;1.42;;;11.20;69.10;;;;;;4225582;27;20038;-85
2022/11/02 06:01:02;;;;;;;9.73;1.38;;;11.10;69.20;;;;;;4216420;28;20121;-85
2022/11/02 06:03:22;;;;;;;5.95;1.00;;;11.10;69.20;;;;;;4224294;27;20046;-85
2022/11/02 06:05:41;;;;;;;10.68;1.60;;;11.10;69.20;;;;;;4224156;27;20043;-86
2022/11/02 06:08:01;;;;;;;13.55;1.85;;;11.10;69.30;;;;;;4226931;27;20080;-86
2022/11/02 06:10:20;;;;;;;12.25;1.55;;;11.00;69.20;;;;;;4227010;28;20108;-86
2022/11/02 06:12:39;;;;;;;9.50;1.85;;;11.00;69.20;;;;;;4226985;27;20057;-85
2022/11/02 06:14:59;;;;;;;8.65;1.45;;;11.00;69.30;;;;;;4227591;27;20091;-86
2022/11/02 06:17:18;;;;;;;12.25;1.70;;;11.00;69.40;;;;;;4229159;28;20465;-86
2022/11/02 06:19:37;;;;;;;9.98;1.73;;;11.00;69.50;;;;;;4230053;28;20042;-86
2022/11/02 06:21:56;;;;;;;13.00;1.92;;;10.90;69.60;;;;;;4231430;27;20030;-86
2022/11/02 06:24:15;;;;;;;7.55;1.40;;;10.90;69.60;;;;;;4228425;27;20593;-86
2022/11/02 06:26:34;;;;;;;11.57;1.85;;;10.90;69.80;;;;;;4226520;27;20443;-85
2022/11/02 06:28:53;;;;;;;12.18;1.50;;;10.90;69.90;;;;;;4232039;27;20067;-86
2022/11/02 06:31:15;;;;;;;10.73;1.67;;;10.90;69.90;;;;;;4237964;27;20107;-85
2022/11/02 06:33:34;;;;;;;12.98;1.80;;;10.90;70.00;;;;;;4230401;27;20042;-86
2022/11/02 06:35:53;;;;;;;14.40;1.80;;;10.80;70.00;;;;;;4231115;27;20031;-85
2022/11/02 06:38:13;;;;;;;12.98;2.08;;;10.80;70.10;;;;;;4233125;27;20075;-86
2022/11/02 06:40:32;;;;;;;14.45;1.88;;;10.80;70.10;;;;;;4234200;27;20559;-86
2022/11/02 06:42:55;;;;;;;17.05;1.90;;;10.90;70.20;;;;;;4234156;27;20034;-86
2022/11/02 06:45:14;;;;;;;17.52;2.08;;;10.70;70.30;;;;;;4230038;27;20555;-85
2022/11/02 06:47:36;;;;;;;6.28;1.60;;;10.70;70.40;;;;;;4234275;27;20517;-86
2022/11/02 06:49:55;;;;;;;12.52;1.95;;;10.70;70.40;;;;;;4237971;27;20030;-85
2022/11/02 06:52:14;;;;;;;8.85;1.50;;;10.70;70.50;;;;;;4245938;27;20026;-86
2022/11/02 06:54:33;;;;;;;6.55;1.48;;;10.80;70.70;;;;;;4229710;27;20035;-86
2022/11/02 06:56:52;;;;;;;13.52;1.58;;;10.80;70.70;;;;;;4229809;27;20088;-86
2022/11/02 06:59:11;;;;;;;8.25;1.73;;;10.70;70.80;;;;;;4228918;27;20096;-86
2022/11/02 07:01:30;;;;;;;11.02;2.25;;;10.70;70.80;;;;;;4231069;27;20058;-86
2022/11/02 07:03:49;;;;;;;15.60;3.03;;;10.70;71.00;;;;;;4230465;27;20075;-86
2022/11/02 07:06:08;;;;;;;17.17;3.65;;;10.70;71.10;;;;;;4231804;27;20472;-86
2022/11/02 07:08:28;;;;;;;18.05;3.10;;;10.80;71.10;;;;;;4231965;27;20080;-86
2022/11/02 07:10:47;;;;;;;10.15;1.75;;;10.70;71.10;;;;;;4232165;27;20525;-86
2022/11/02 07:13:07;;;;;;;12.07;1.70;;;10.80;71.20;;;;;;4229529;27;20026;-86
2022/11/02 07:15:26;;;;;;;14.20;1.60;;;10.70;71.10;;;;;;4227904;27;20054;-86
2022/11/02 07:17:46;;;;;;;12.45;1.95;;;10.70;71.20;;;;;;4232352;27;20077;-86
2022/11/02 07:20:06;;;;;;;10.30;1.75;;;10.80;71.20;;;;;;4244820;27;20061;-86
2022/11/02 07:22:25;;;;;;;13.75;2.30;;;10.80;71.30;;;;;;4238382;27;20061;-86
2022/11/02 07:24:44;;;;;;;14.25;1.95;;;10.80;71.30;;;;;;4229380;27;20072;-86
2022/11/02 07:27:03;;;;;;;15.15;2.08;;;11.00;71.60;;;;;;4231315;27;20035;-86
2022/11/02 07:29:23;;;;;;;6.85;1.45;;;10.90;71.50;;;;;;4228544;27;20143;-86
2022/11/02 07:31:42;;;;;;;10.20;1.48;;;11.00;71.60;;;;;;4229879;27;20077;-86
2022/11/02 07:34:01;;;;;;;11.18;2.00;;;11.00;71.60;;;;;;4229245;28;20046;-85
2022/11/02 07:36:20;;;;;;;6.90;1.40;;;11.10;71.60;;;;;;4232870;27;20034;-85
2022/11/02 07:38:40;;;;;;;13.40;3.47;;;11.10;71.60;;;;;;4237015;27;20050;-85
2022/11/02 07:40:59;;;;;;;7.90;1.40;;;11.10;71.50;;;;;;4233857;27;20196;-86
2022/11/02 07:43:19;;;;;;;6.20;1.23;;;11.20;71.50;;;;;;4228001;27;20094;-85
2022/11/02 07:45:38;;;;;;;8.23;1.50;;;11.30;71.60;;;;;;4235167;27;20157;-86
2022/11/02 07:47:57;;;;;;;13.60;3.28;;;11.30;71.40;;;;;;4233071;27;20079;-86
2022/11/02 07:50:19;;;;;;;7.88;1.65;;;11.30;71.30;;;;;;4227165;28;20090;-84
2022/11/02 07:52:46;;;;;;;7.07;1.80;;;11.20;71.20;;;;;;4227210;27;20045;-86
2022/11/02 07:55:06;;;;;;;8.88;1.50;;;11.20;71.10;;;;;;4240523;27;20701;-86
2022/11/02 07:57:25;;;;;;;16.67;1.65;;;11.20;71.00;;;;;;4231074;27;20103;-86
2022/11/02 07:59:44;;;;;;;8.40;1.83;;;11.30;71.10;;;;;;4229759;27;20042;-86
2022/11/02 08:02:03;;;;;;;14.65;1.80;;;11.20;71.00;;;;;;4229064;27;20087;-86
2022/11/02 08:04:22;;;;;;;12.48;2.08;;;11.30;71.30;;;;;;4230316;27;20051;-85
2022/11/02 08:06:41;;;;;;;10.25;2.00;;;11.30;71.30;;;;;;4232821;27;20043;-86
2022/11/02 08:09:02;;;;;;;10.85;1.58;;;11.30;71.50;;;;;;4231569;27;20038;-86
2022/11/02 08:11:21;;;;;;;10.20;1.33;;;11.30;71.80;;;;;;4229250;27;20600;-86
2022/11/02 08:13:40;;;;;;;11.50;1.73;;;11.40;71.90;;;;;;4226107;27;20538;-86
2022/11/02 08:15:59;;;;;;;8.27;1.60;;;11.30;72.00;;;;;;4229389;27;20042;-86
2022/11/02 08:18:21;;;;;;;14.98;1.45;;;11.30;72.20;;;;;;4233483;27;20030;-86
2022/11/02 08:20:41;;;;;;;9.52;1.63;;;11.50;72.30;;;;;;4229249;28;20047;-85
2022/11/02 08:23:00;;;;;;;12.70;1.42;;;11.40;72.20;;;;;;4225699;27;20051;-85
2022/11/02 08:25:19;;;;;;;11.43;1.98;;;11.40;72.40;;;;;;4233090;27;20042;-85
2022/11/02 08:27:38;;;;;;;15.00;2.25;;;11.40;72.40;;;;;;4231477;28;20099;-86
2022/11/02 08:29:57;;;;;;;10.77;1.52;;;11.50;72.70;;;;;;4230874;27;20099;-86
2022/11/02 08:32:16;;;;;;;14.43;1.80;;;11.50;72.60;;;;;;4232791;27;20035;-85
2022/11/02 08:34:36;;;;;;;12.77;1.60;;;11.60;72.60;;;;;;4225571;28;20071;-86
2022/11/02 08:36:55;;;;;;;13.38;1.75;;;11.60;72.50;;;;;;4224796;28;20035;-87
2022/11/02 08:39:14;;;;;;;9.80;1.63;;;11.60;72.40;;;;;;4224990;28;20066;-87
2022/11/02 08:41:33;;;;;;;10.48;1.65;;;11.70;72.20;;;;;;4226582;28;20135;-86
2022/11/02 08:43:52;;;;;;;15.68;1.67;;;11.70;71.90;;;;;;4222399;28;20544;-87
2022/11/02 08:46:11;;;;;;;11.50;1.90;;;11.70;71.80;;;;;;4224516;28;20403;-86
2022/11/02 08:48:31;;;;;;;13.55;1.75;;;11.90;71.70;;;;;;4229707;28;20096;-86
2022/11/02 08:50:50;;;;;;;8.65;1.58;;;11.80;71.50;;;;;;4226480;28;20065;-86
2022/11/02 08:53:09;;;;;;;10.35;1.30;;;11.80;71.40;;;;;;4224002;28;20117;-86
2022/11/02 08:55:28;;;;;;;10.73;1.52;;;11.80;71.40;;;;;;4226574;28;20035;-85
2022/11/02 08:57:55;;;;;;;9.38;1.77;;;12.00;71.20;;;;;;4232413;28;20035;-87
2022/11/02 09:00:19;;;;;;;10.00;1.48;;;12.00;71.10;;;;;;4228179;28;20035;-86
2022/11/02 09:02:38;;;;;;;11.20;2.00;;;11.90;71.00;;;;;;4232082;28;20046;-86
2022/11/02 09:04:57;;;;;;;11.48;1.70;;;11.90;71.60;;;;;;4225715;28;20135;-86
2022/11/02 09:07:16;;;;;;;9.07;1.50;;;12.00;70.70;;;;;;4222593;28;20054;-85
2022/11/02 09:09:35;;;;;;;13.63;1.73;;;12.00;70.70;;;;;;4228482;28;20031;-86
2022/11/02 09:11:54;;;;;;;13.02;1.50;;;12.00;70.80;;;;;;4233711;28;20065;-86
2022/11/02 09:14:13;;;;;;;7.88;1.10;;;12.00;70.80;;;;;;4243440;28;20069;-86
2022/11/02 09:16:33;;;;;;;9.82;1.63;;;12.00;71.00;;;;;;4247116;28;20038;-86
2022/11/02 09:18:52;;;;;;;12.65;1.42;;;12.00;71.20;;;;;;4240408;27;20031;-86
2022/11/02 09:21:12;;;;;;;8.05;1.40;;;12.00;71.30;;;;;;4232317;28;20035;-86
2022/11/02 09:23:31;;;;;;;12.45;1.70;;;12.00;71.40;;;;;;4220005;28;20054;-86
2022/11/02 09:25:50;;;;;;;9.63;1.50;;;12.00;71.20;;;;;;4226239;28;20115;-86
2022/11/02 09:28:09;;;;;;;13.88;1.63;;;12.00;71.10;;;;;;4227026;28;20023;-85
2022/11/02 09:30:29;;;;;;;9.27;1.48;;;12.00;71.00;;;;;;4223061;28;20070;-86
2022/11/02 09:32:56;;;;;;;14.65;2.10;;;12.00;70.80;;;;;;4229935;27;20051;-85
2022/11/02 09:35:15;;;;;;;7.00;1.25;;;12.00;70.90;;;;;;4223475;27;20034;-87
2022/11/02 09:37:35;;;;;;;16.83;1.77;;;12.00;71.00;;;;;;4230776;27;20042;-86
2022/11/02 09:39:55;;;;;;;15.05;1.90;;;12.00;71.40;;;;;;4230054;27;20092;-86
2022/11/02 09:42:33;;;;;;;17.48;2.00;;;12.00;71.50;;;;;;4234418;27;20789;-87
2022/11/02 09:45:04;;;;;;;9.10;1.25;;;11.90;71.90;;;;;;4228489;27;20039;-87
2022/11/02 09:47:24;;;;;;;5.78;0.52;;;12.00;70.50;;;;;;4231225;27;20144;-87
2022/11/02 09:49:44;;;;;;;3.80;0.82;;;11.90;70.10;;;;;;4234111;27;20128;-86
2022/11/02 09:52:06;;;;;;;4.75;0.47;;;11.70;69.40;;;;;;4235142;27;20025;-86
2022/11/02 09:54:38;;;;;;;3.03;0.55;;;11.60;68.50;;;;;;4228186;27;20077;-87
2022/11/02 09:57:03;;;;;;;5.13;0.80;;;11.50;68.70;;;;;;4244263;27;20038;-87
2022/11/02 09:59:25;;;;;;;7.43;0.80;;;11.50;69.10;;;;;;4232737;27;20073;-87
2022/11/02 10:01:50;;;;;;;13.45;1.38;;;11.40;69.70;;;;;;4230232;27;20042;-87
2022/11/02 10:04:12;;;;;;;5.88;1.40;;;11.30;70.60;;;;;;4231843;27;20090;-86
2022/11/02 10:06:34;;;;;;;6.18;1.23;;;11.30;70.80;;;;;;4228408;27;20039;-86
2022/11/02 10:09:14;;;;;;;7.47;1.55;;;11.30;71.40;;;;;;4229977;27;20034;-86
2022/11/02 10:12:01;;;;;;;9.05;1.45;;;11.20;71.90;;;;;;4224328;28;20027;-87
2022/11/02 10:14:27;;;;;;;13.00;1.20;;;11.10;72.50;;;;;;4230785;27;20415;-86
2022/11/02 10:17:24;;;;;;;12.43;1.60;;;11.10;72.30;;;;;;4233154;27;20091;-86
2022/11/02 10:19:52;;;;;;;15.80;2.15;;;11.10;73.30;;;;;;4180073;28;20036;-86
2022/11/02 10:22:14;;;;;;;14.93;1.52;;;11.10;73.20;;;;;;4171889;28;20525;-86
2022/11/02 10:24:42;;;;;;;12.40;2.20;;;11.10;73.50;;;;;;4172927;28;20044;-86
2022/11/02 10:27:05;;;;;;;13.80;2.05;;;11.10;73.90;;;;;;4181148;28;20554;-86
2022/11/02 10:29:36;;;;;;;19.48;2.80;;;11.10;74.50;;;;;;4190847;28;20066;-86
2022/11/02 10:31:37;;;;;;;16.92;1.80;;;11.10;74.60;;;;;;4183716;28;20024;-86
2022/11/02 10:34:16;;;;;;;12.90;1.83;;;11.20;75.10;;;;;;4163526;28;20026;-87
2022/11/02 10:36:53;;;;;;;14.10;1.60;;;11.10;75.40;;;;;;4178048;28;20060;-85
2022/11/02 10:39:27;;;;;;;16.27;1.90;;;11.20;75.70;;;;;;4170718;28;20045;-87
2022/11/02 10:41:33;;;;;;;10.02;1.67;;;11.20;75.70;;;;;;4154017;28;20597;-86
2022/11/02 10:43:52;;;;;;;8.60;1.33;;;11.30;75.40;;;;;;4164567;28;20034;-86
2022/11/02 10:46:23;;;;;;;13.52;2.13;;;11.30;75.70;;;;;;4160528;28;20159;-86
2022/11/02 10:48:29;;;;;;;11.60;1.30;;;11.30;75.30;;;;;;4162893;28;20029;-87
2022/11/02 10:50:46;;;;;;;10.75;1.38;;;11.30;75.00;;;;;;4163312;28;20105;-87
2022/11/02 10:53:13;;;;;;;14.30;1.75;;;11.30;75.00;;;;;;4179036;28;20107;-87
2022/11/02 10:55:43;;;;;;;9.32;1.70;;;11.40;75.00;;;;;;4234399;27;20031;-87
2022/11/02 10:58:05;;;;;;;12.48;1.67;;;11.30;74.90;;;;;;4230108;27;20024;-87
2022/11/02 11:00:33;;;;;;;8.23;1.30;;;11.30;74.80;;;;;;4230770;28;20028;-86
2022/11/02 11:03:10;;;;;;;11.85;1.08;;;11.30;75.10;;;;;;4212727;28;20028;-87
2022/11/02 11:05:34;;;;;;;10.43;1.38;;;11.30;75.00;;;;;;4222654;27;20494;-85
2022/11/02 11:07:56;;;;;;;17.90;2.25;;;11.30;74.80;;;;;;4228805;27;20035;-86
2022/11/02 11:10:17;;;;;;;12.23;1.60;;;11.20;74.50;;;;;;4228897;27;20050;-85
2022/11/02 11:12:39;;;;;;;19.88;2.08;;;11.30;75.30;;;;;;4229816;27;20023;-86
2022/11/02 11:15:01;;;;;;;10.63;1.30;;;11.30;74.50;;;;;;4222504;27;20043;-86
2022/11/02 11:17:37;;;;;;;16.35;1.48;;;11.30;74.40;;;;;;4228787;27;20034;-87
2022/11/02 11:19:58;;;;;;;16.00;2.08;;;11.20;74.30;;;;;;4228917;27;20023;-86
2022/11/02 11:22:45;;;;;;;6.72;1.02;;;11.10;74.30;;;;;;4229073;27;20034;-87
2022/11/02 11:25:12;;;;;;;10.13;1.15;;;11.10;74.40;;;;;;4232537;27;20030;-86
2022/11/02 11:27:47;;;;;;;8.25;1.15;;;11.20;74.40;;;;;;4229925;27;20074;-86
2022/11/02 11:30:24;;;;;;;6.82;0.95;;;11.20;74.40;;;;;;4227781;27;20024;-86
2022/11/02 11:32:47;;;;;;;4.55;0.95;;;11.00;74.30;;;;;;4228285;27;20031;-86
2022/11/02 11:35:16;;;;;;;6.30;1.00;;;11.00;74.20;;;;;;4232272;27;20020;-86
2022/11/02 11:37:47;;;;;;;6.63;1.23;;;10.90;74.10;;;;;;4224492;27;20036;-87
2022/11/02 11:40:17;;;;;;;8.30;0.90;;;10.90;74.20;;;;;;4230009;27;20047;-85
2022/11/02 11:42:41;;;;;;;6.85;0.80;;;10.90;74.10;;;;;;4226759;27;20026;-85
2022/11/02 11:45:16;;;;;;;11.50;1.30;;;11.00;74.30;;;;;;4230051;27;20024;-87
2022/11/02 11:47:41;;;;;;;7.25;0.98;;;10.80;74.30;;;;;;4226820;28;20035;-86
2022/11/02 11:50:05;;;;;;;8.88;0.95;;;10.80;74.20;;;;;;4226781;27;20024;-85
2022/11/02 11:52:27;;;;;;;;;;;10.80;74.50;;;;;;4224801;28;20039;-86
2022/11/02 11:54:59;;;;;;;8.00;0.90;;;10.80;74.90;;;;;;4232754;27;19908;-86
2022/11/02 11:57:32;;;;;;;10.95;1.23;;;10.70;74.40;;;;;;4226577;28;20104;-86
2022/11/02 11:59:57;;;;;;;8.60;1.30;;;10.70;75.00;;;;;;4219808;27;20135;-85
2022/11/02 12:02:21;;;;;;;9.38;1.75;;;10.80;75.10;;;;;;4229047;27;20032;-85
2022/11/02 12:04:41;;;;;;;14.05;2.40;;;10.80;75.30;;;;;;4241353;27;20037;-87
2022/11/02 12:07:12;;;;;;;12.38;1.60;;;10.70;75.50;;;;;;4228480;28;20035;-87
2022/11/02 12:09:42;;;;;;;13.55;1.75;;;10.80;75.70;;;;;;4228532;27;20492;-86
2022/11/02 12:12:05;;;;;;;16.15;1.90;;;10.80;75.70;;;;;;4223045;28;20073;-86
2022/11/02 12:15:01;;;;;;;16.23;2.03;;;10.80;75.80;;;;;;4231880;27;20219;-86
2022/11/02 12:17:40;;;;;;;16.92;1.50;;;10.80;76.00;;;;;;4155836;28;20528;-87
2022/11/02 12:20:15;;;;;;;9.98;1.35;;;10.80;76.00;;;;;;4227541;27;20060;-86
2022/11/02 12:22:41;;;;;;;15.20;1.80;;;10.90;75.90;;;;;;4230151;27;20034;-86
2022/11/02 12:25:15;;;;;;;5.93;1.20;;;10.90;76.00;;;;;;4226328;27;20046;-87
2022/11/02 12:28:02;;;;;;;13.23;1.58;;;10.90;76.00;;;;;;4226179;28;20103;-87
2022/11/02 12:30:58;;;;;;;9.65;1.08;;;10.90;76.30;;;;;;4230366;27;20402;-87
2022/11/02 12:33:40;;;;;;;6.07;1.10;;;10.90;75.90;;;;;;4229838;27;20051;-87